createdAt,value
2018-04-19T00:00:40.536Z,102565.50
2018-04-19T00:03:08.970Z,102568.53
2018-04-19T00:05:37.338Z,102571.12
2018-04-19T00:08:05.740Z,102571.12
2018-04-19T00:10:34.213Z,102564.19
2018-04-19T00:13:02.833Z,102563.75
2018-04-19T00:15:32.101Z,102568.95
2018-04-19T00:18:01.282Z,102572.41
2018-04-19T00:20:29.694Z,102565.03
2018-04-19T00:22:58.824Z,102564.15
2018-04-19T00:25:27.308Z,102563.72
2018-04-19T00:27:55.793Z,102555.07
2018-04-19T00:30:24.170Z,102555.08
2018-04-19T00:32:52.656Z,102557.22
2018-04-19T00:35:21.085Z,102553.31
2018-04-19T00:37:49.865Z,102549.86
2018-04-19T00:40:18.261Z,102548.97
2018-04-19T00:42:47.439Z,102543.35
2018-04-19T00:45:15.814Z,102553.29
2018-04-19T00:47:44.171Z,102542.92
2018-04-19T00:50:12.636Z,102540.31
2018-04-19T00:52:58.851Z,102539.01
2018-04-19T00:55:27.245Z,102541.60
2018-04-19T00:57:55.630Z,102536.86
2018-04-19T01:00:23.975Z,102532.53
2018-04-19T01:02:52.357Z,102526.90
2018-04-19T01:05:20.708Z,102533.81
2018-04-19T01:07:49.061Z,102523.00
2018-04-19T01:10:18.201Z,102531.67
2018-04-19T01:12:46.586Z,102529.89
2018-04-19T01:15:15.051Z,102523.82
2018-04-19T01:17:43.401Z,102534.63
2018-04-19T01:20:12.508Z,102534.17
2018-04-19T01:22:40.863Z,102532.91
2018-04-19T01:25:09.228Z,102537.20
2018-04-19T01:27:37.605Z,102531.16
2018-04-19T01:30:05.955Z,102532.48
2018-04-19T01:32:34.347Z,102535.55
2018-04-19T01:35:02.681Z,102537.73
2018-04-19T01:37:31.904Z,102536.86
2018-04-19T01:40:00.301Z,102533.33
2018-04-19T01:42:28.669Z,102533.30
2018-04-19T01:44:57.093Z,102534.19
2018-04-19T01:47:26.245Z,102529.43
2018-04-19T01:49:54.591Z,102532.46
2018-04-19T01:52:22.944Z,102522.11
2018-04-19T01:54:51.288Z,102531.16
2018-04-19T01:57:19.657Z,102531.17
2018-04-19T01:59:48.764Z,102525.96
2018-04-19T02:02:17.114Z,102522.48
2018-04-19T02:04:45.546Z,102518.18
2018-04-19T02:07:14.669Z,102519.04
2018-04-19T02:09:43.779Z,102517.72
2018-04-19T02:12:12.629Z,102519.86
2018-04-19T02:14:40.977Z,102516.80
2018-04-19T02:17:09.766Z,102513.77
2018-04-19T02:19:38.128Z,102512.91
2018-04-19T02:22:06.528Z,102515.50
2018-04-19T02:24:34.891Z,102510.71
2018-04-19T02:27:03.250Z,102506.39
2018-04-19T02:29:31.606Z,102508.55
2018-04-19T02:32:01.914Z,102503.76
2018-04-19T02:34:30.406Z,102497.70
2018-04-19T02:36:59.563Z,102498.55
2018-04-19T02:39:27.944Z,102498.11
2018-04-19T02:41:56.372Z,102498.09
2018-04-19T02:44:25.527Z,102492.49
2018-04-19T02:46:53.873Z,102490.28
2018-04-19T02:49:22.234Z,102482.94
2018-04-19T02:51:51.352Z,102481.65
2018-04-19T02:54:19.706Z,102475.98
2018-04-19T02:56:49.061Z,102478.57
2018-04-19T02:59:17.435Z,102489.36
2018-04-19T03:01:45.771Z,102485.44
2018-04-19T03:04:14.366Z,102480.70
2018-04-19T03:06:43.147Z,102481.56
2018-04-19T03:09:11.509Z,102490.64
2018-04-19T03:11:40.668Z,102489.77
2018-04-19T03:14:09.071Z,102487.16
2018-04-19T03:16:38.223Z,102480.23
2018-04-19T03:19:06.714Z,102484.13
2018-04-19T03:21:35.098Z,102486.73
2018-04-19T03:24:03.503Z,102482.84
2018-04-19T03:26:31.942Z,102480.19
2018-04-19T03:29:00.386Z,102484.48
2018-04-19T03:31:28.910Z,102478.88
2018-04-19T03:33:57.261Z,102474.09
2018-04-19T03:36:25.665Z,102485.69
2018-04-19T03:38:54.006Z,102483.50
2018-04-19T03:41:23.146Z,102486.95
2018-04-19T03:43:51.515Z,102483.47
2018-04-19T03:46:19.857Z,102482.16
2018-04-19T03:48:49.031Z,102485.60
2018-04-19T03:51:17.367Z,102485.61
2018-04-19T03:53:45.726Z,102483.88
2018-04-19T03:56:14.093Z,102486.87
2018-04-19T03:58:42.468Z,102489.48
2018-04-19T04:01:11.678Z,102490.79
2018-04-19T04:03:39.992Z,102488.55
2018-04-19T04:06:08.350Z,102488.98
2018-04-19T04:08:36.699Z,102483.34
2018-04-19T04:11:05.857Z,102484.63
2018-04-19T04:13:34.951Z,102490.20
2018-04-19T04:16:03.341Z,102485.46
2018-04-19T04:18:49.572Z,102480.69
2018-04-19T04:21:18.760Z,102482.86
2018-04-19T04:23:53.934Z,102483.72
2018-04-19T04:26:22.996Z,102481.02
2018-04-19T04:28:52.122Z,102482.34
2018-04-19T04:31:20.555Z,102490.09
2018-04-19T04:33:49.012Z,102486.17
2018-04-19T04:36:17.504Z,102487.89
2018-04-19T04:38:45.873Z,102485.74
2018-04-19T04:41:14.342Z,102489.59
2018-04-19T04:43:42.860Z,102494.34
2018-04-19T04:46:12.625Z,102491.31
2018-04-19T04:48:41.010Z,102486.14
2018-04-19T04:51:09.410Z,102498.67
2018-04-19T04:53:37.791Z,102495.68
2018-04-19T04:56:06.196Z,102499.09
2018-04-19T04:58:35.347Z,102497.34
2018-04-19T05:01:03.761Z,102497.36
2018-04-19T05:03:32.164Z,102500.43
2018-04-19T05:06:01.309Z,102499.97
2018-04-19T05:08:30.441Z,102503.87
2018-04-19T05:10:59.697Z,102504.77
2018-04-19T05:13:28.060Z,102514.70
2018-04-19T05:15:56.406Z,102511.70
2018-04-19T05:18:24.799Z,102508.70
2018-04-19T05:20:53.150Z,102514.77
2018-04-19T05:23:22.261Z,102519.13
2018-04-19T05:25:51.484Z,102524.77
2018-04-19T05:28:19.864Z,102517.87
2018-04-19T05:30:48.208Z,102511.43
2018-04-19T05:33:16.651Z,102512.77
2018-04-19T05:35:45.939Z,102515.38
2018-04-19T05:38:14.301Z,102513.23
2018-04-19T05:40:42.660Z,102515.88
2018-04-19T05:43:11.821Z,102520.23
2018-04-19T05:45:40.244Z,102518.09
2018-04-19T05:48:10.358Z,102528.52
2018-04-19T05:50:42.448Z,102524.25
2018-04-19T05:53:10.793Z,102528.16
2018-04-19T05:55:39.960Z,102521.75
2018-04-19T05:58:08.373Z,102528.72
2018-04-19T06:00:37.499Z,102527.89
2018-04-19T06:03:06.021Z,102527.48
2018-04-19T06:05:35.389Z,102527.97
2018-04-19T06:08:03.806Z,102521.48
2018-04-19T06:10:32.331Z,102529.28
2018-04-19T06:13:00.812Z,102528.02
2018-04-19T06:15:29.168Z,102521.56
2018-04-19T06:17:58.340Z,102524.61
2018-04-19T06:20:26.898Z,102517.30
2018-04-19T06:22:55.262Z,102516.89
2018-04-19T06:25:23.589Z,102516.03
2018-04-19T06:27:52.180Z,102514.36
2018-04-19T06:30:20.947Z,102518.23
2018-04-19T06:32:49.627Z,102511.77
2018-04-19T06:35:18.078Z,102510.46
2018-04-19T06:37:46.441Z,102513.08
2018-04-19T06:40:14.812Z,102510.95
2018-04-19T06:42:43.193Z,102515.69
2018-04-19T06:45:11.586Z,102513.11
2018-04-19T06:47:39.972Z,102518.31
2018-04-19T06:50:08.349Z,102507.48
2018-04-19T06:52:37.544Z,102510.97
2018-04-19T06:55:06.867Z,102511.40
2018-04-19T06:57:35.242Z,102512.67
2018-04-19T07:00:04.108Z,102513.97
2018-04-19T07:02:33.568Z,102511.81
2018-04-19T07:05:01.973Z,102504.40
2018-04-19T07:07:31.137Z,102513.51
2018-04-19T07:09:59.761Z,102503.08
2018-04-19T07:12:28.881Z,102507.40
2018-04-19T07:14:57.265Z,102504.33
2018-04-19T07:17:25.804Z,102498.21
2018-04-19T07:19:54.944Z,102496.42
2018-04-19T07:22:25.413Z,102500.30
2018-04-19T07:24:54.550Z,102505.46
2018-04-19T07:27:22.974Z,102498.08
2018-04-19T07:29:51.415Z,102500.20
2018-04-19T07:32:19.807Z,102497.98
2018-04-19T07:34:48.177Z,102501.42
2018-04-19T07:37:16.563Z,102497.91
2018-04-19T07:39:45.007Z,102492.19
2018-04-19T07:42:14.190Z,102499.92
2018-04-19T07:44:43.352Z,102495.95
2018-04-19T07:47:11.716Z,102499.34
2018-04-19T07:49:40.150Z,102500.08
2018-04-19T07:52:09.258Z,102504.36
2018-04-19T07:54:38.410Z,102497.77
2018-04-19T07:57:06.795Z,102492.98
2018-04-19T07:59:35.161Z,102497.22
2018-04-19T08:02:03.545Z,102498.45
2018-04-19T08:04:33.051Z,102495.72
2018-04-19T08:07:02.134Z,102490.38
2018-04-19T08:09:30.520Z,102491.59
2018-04-19T08:11:58.894Z,102488.42
2018-04-19T08:14:27.286Z,102486.15
2018-04-19T08:16:55.651Z,102489.10
2018-04-19T08:19:24.083Z,102485.97
2018-04-19T08:21:53.296Z,102487.61
2018-04-19T08:24:21.702Z,102487.11
2018-04-19T08:26:50.412Z,102490.05
2018-04-19T08:29:18.782Z,102490.87
2018-04-19T08:31:47.186Z,102492.93
2018-04-19T08:34:15.568Z,102489.34
2018-04-19T08:36:43.930Z,102494.46
2018-04-19T08:39:12.306Z,102494.78
2018-04-19T08:41:40.675Z,102493.74
2018-04-19T08:44:09.053Z,102496.68
2018-04-19T08:46:37.446Z,102494.48
2018-04-19T08:49:06.743Z,102484.34
2018-04-19T08:51:35.076Z,102486.85
2018-04-19T08:54:04.143Z,102485.44
2018-04-19T08:56:33.269Z,102486.98
2018-04-19T08:59:01.678Z,102484.26
2018-04-19T09:01:30.852Z,102486.34
2018-04-19T09:03:59.931Z,102483.16
2018-04-19T09:06:28.309Z,102486.58
2018-04-19T09:08:56.685Z,102492.13
2018-04-19T09:11:25.855Z,102486.39
2018-04-19T09:13:54.204Z,102490.62
2018-04-19T09:16:22.567Z,102486.52
2018-04-19T09:18:50.949Z,102493.28
2018-04-19T09:21:19.333Z,102486.58
2018-04-19T09:23:47.694Z,102483.00
2018-04-19T09:26:16.899Z,102481.24
2018-04-19T09:28:45.297Z,102483.30
2018-04-19T09:31:13.711Z,102481.03
2018-04-19T09:33:42.837Z,102483.03
2018-04-19T09:36:11.203Z,102482.00
2018-04-19T09:38:40.214Z,102478.36
2018-04-19T09:41:08.601Z,102477.38
2018-04-19T09:43:37.693Z,102471.47
2018-04-19T09:46:06.066Z,102475.16
2018-04-19T09:48:35.272Z,102476.22
2018-04-19T09:51:03.700Z,102475.53
2018-04-19T09:53:32.130Z,102470.20
2018-04-19T09:56:00.521Z,102470.13
2018-04-19T09:58:28.932Z,102472.20
2018-04-19T10:01:02.856Z,102473.36
2018-04-19T10:03:37.496Z,102470.27
2018-04-19T10:06:09.085Z,102468.76
2018-04-19T10:08:37.767Z,102472.87
2018-04-19T10:11:06.226Z,102463.91
2018-04-19T10:13:34.569Z,102458.77
2018-04-19T10:16:03.069Z,102466.05
2018-04-19T10:18:31.401Z,102463.35
2018-04-19T10:20:59.799Z,102467.00
2018-04-19T10:23:28.159Z,102458.04
2018-04-19T10:25:56.831Z,102457.83
2018-04-19T10:28:25.281Z,102450.56
2018-04-19T10:30:53.690Z,102445.92
2018-04-19T10:33:22.804Z,102450.07
2018-04-19T10:35:51.195Z,102445.81
2018-04-19T10:38:19.554Z,102449.56
2018-04-19T10:40:48.877Z,102442.43
2018-04-19T10:43:17.282Z,102432.12
2018-04-19T10:45:46.503Z,102433.27
2018-04-19T10:48:14.948Z,102435.05
2018-04-19T10:50:43.303Z,102437.48
2018-04-19T10:53:11.769Z,102433.20
2018-04-19T10:55:40.167Z,102428.53
2018-04-19T10:58:08.546Z,102426.73
2018-04-19T11:00:39.110Z,102420.23
2018-04-19T11:03:08.252Z,102426.89
2018-04-19T11:05:36.612Z,102422.04
2018-04-19T11:08:05.754Z,102420.89
2018-04-19T11:10:37.328Z,102422.08
2018-04-19T11:13:05.707Z,102408.89
2018-04-19T11:15:34.092Z,102404.69
2018-04-19T11:18:04.052Z,102404.06
2018-04-19T11:20:32.436Z,102400.78
2018-04-19T11:23:01.082Z,102402.41
2018-04-19T11:25:30.618Z,102397.83
2018-04-19T11:27:58.982Z,102398.95
2018-04-19T11:30:27.366Z,102393.87
2018-04-19T11:32:55.757Z,102395.64
2018-04-19T11:35:25.001Z,102385.58
2018-04-19T11:37:53.334Z,102383.50
2018-04-19T11:40:21.888Z,102381.41
2018-04-19T11:42:51.011Z,102377.36
2018-04-19T11:45:19.578Z,102374.60
2018-04-19T11:47:47.958Z,102373.14
2018-04-19T11:50:16.418Z,102373.30
2018-04-19T11:52:45.579Z,102370.83
2018-04-19T11:55:13.936Z,102369.75
2018-04-19T11:57:43.215Z,102364.76
2018-04-19T12:00:13.240Z,102364.16
2018-04-19T12:05:17.713Z,102362.76
2018-04-19T12:07:46.179Z,102358.04
2018-04-19T12:10:15.386Z,102361.28
2018-04-19T12:12:46.222Z,102353.05
2018-04-19T12:15:14.891Z,102354.44
2018-04-19T12:17:43.245Z,102351.44
2018-04-19T12:20:12.388Z,102353.50
2018-04-19T12:22:41.549Z,102355.39
2018-04-19T12:25:09.928Z,102350.95
2018-04-19T12:27:38.267Z,102348.69
2018-04-19T12:30:06.803Z,102344.38
2018-04-19T12:32:37.076Z,102351.27
2018-04-19T12:35:07.893Z,102345.22
2018-04-19T12:37:36.377Z,102340.41
2018-04-19T12:40:04.848Z,102344.83
2018-04-19T12:42:33.224Z,102347.50
2018-04-19T12:45:01.976Z,102337.49
2018-04-19T12:47:31.403Z,102328.37
2018-04-19T12:49:59.797Z,102332.04
2018-04-19T12:52:28.581Z,102327.35
2018-04-19T12:54:56.972Z,102327.20
2018-04-19T12:57:26.368Z,102326.55
2018-04-19T12:59:54.796Z,102325.56
2018-04-19T13:02:24.301Z,102322.84
2018-04-19T13:04:52.858Z,102324.70
2018-04-19T13:07:22.948Z,102321.16
2018-04-19T13:09:52.244Z,102317.45
2018-04-19T13:12:20.838Z,102310.97
2018-04-19T13:14:50.242Z,102309.62
2018-04-19T13:17:19.418Z,102305.16
2018-04-19T13:19:49.053Z,102302.83
2018-04-19T13:22:17.476Z,102299.23
2018-04-19T13:24:46.924Z,102299.02
2018-04-19T13:27:16.377Z,102292.44
2018-04-19T13:29:44.724Z,102295.04
2018-04-19T13:32:13.822Z,102282.52
2018-04-19T13:34:42.672Z,102278.64
2018-04-19T13:37:11.343Z,102281.59
2018-04-19T13:39:41.605Z,102280.72
2018-04-19T13:42:13.374Z,102269.58
2018-04-19T13:44:41.782Z,102272.16
2018-04-19T13:47:10.877Z,102276.75
2018-04-19T13:49:40.053Z,102278.83
2018-04-19T13:52:08.529Z,102271.16
2018-04-19T13:54:39.089Z,102274.59
2018-04-19T13:57:09.112Z,102274.37
2018-04-19T13:59:41.170Z,102271.20
2018-04-19T14:02:11.220Z,102269.45
2018-04-19T14:04:40.327Z,102268.95
2018-04-19T14:07:08.730Z,102256.88
2018-04-19T14:09:38.164Z,102261.91
2018-04-19T14:12:08.288Z,102248.98
2018-04-19T14:14:37.447Z,102244.31
2018-04-19T14:17:05.895Z,102242.53
2018-04-19T14:19:37.395Z,102243.09
2018-04-19T14:22:06.551Z,102243.55
2018-04-19T14:24:34.962Z,102237.49
2018-04-19T14:27:03.387Z,102238.34
2018-04-19T14:29:32.167Z,102235.61
2018-04-19T14:32:00.526Z,102237.92
2018-04-19T14:34:29.848Z,102231.62
2018-04-19T14:36:58.546Z,102231.02
2018-04-19T14:39:26.943Z,102228.23
2018-04-19T14:42:06.235Z,102229.00
2018-04-19T14:44:37.006Z,102234.95
2018-04-19T14:47:05.370Z,102230.80
2018-04-19T14:49:34.017Z,102227.13
2018-04-19T14:52:02.771Z,102225.60
2018-04-19T14:54:31.671Z,102228.34
2018-04-19T14:57:00.094Z,102222.97
2018-04-19T14:59:29.340Z,102216.22
2018-04-19T15:01:57.776Z,102214.00
2018-04-19T15:04:27.732Z,102219.53
2018-04-19T15:06:56.319Z,102216.46
2018-04-19T15:09:24.860Z,102215.23
2018-04-19T15:11:53.298Z,102208.44
2018-04-19T15:14:22.368Z,102206.30
2018-04-19T15:16:50.901Z,102205.69
2018-04-19T15:19:23.518Z,102205.78
2018-04-19T15:21:51.949Z,102205.48
2018-04-19T15:24:20.511Z,102205.85
2018-04-19T15:26:49.058Z,102194.52
2018-04-19T15:29:17.511Z,102197.56
2018-04-19T15:31:47.476Z,102198.33
2018-04-19T15:34:15.923Z,102190.91
2018-04-19T15:36:44.288Z,102184.10
2018-04-19T15:39:13.592Z,102189.60
2018-04-19T15:41:42.355Z,102187.90
2018-04-19T15:44:10.824Z,102184.41
2018-04-19T15:46:50.119Z,102184.02
2018-04-19T15:49:18.763Z,102174.53
2018-04-19T15:51:48.198Z,102185.14
2018-04-19T15:54:17.443Z,102175.73
2018-04-19T15:56:46.255Z,102175.28
2018-04-19T15:59:14.586Z,102181.36
2018-04-19T16:01:55.036Z,102180.78
2018-04-19T16:04:23.338Z,102177.74
2018-04-19T16:06:51.862Z,102173.66
2018-04-19T16:09:20.979Z,102176.54
2018-04-19T16:11:52.856Z,102169.66
2018-04-19T16:14:19.297Z,102168.56
2018-04-19T16:16:48.271Z,102171.38
2018-04-19T16:19:18.295Z,102171.45
2018-04-19T16:21:46.664Z,102170.05
2018-04-19T16:24:16.049Z,102169.42
2018-04-19T16:26:44.475Z,102165.13
2018-04-19T16:29:12.859Z,102171.22
2018-04-19T16:31:41.265Z,102165.83
2018-04-19T16:34:09.703Z,102163.73
2018-04-19T16:36:38.930Z,102163.73
2018-04-19T16:39:07.325Z,102166.73
2018-04-19T16:41:36.765Z,102164.54
2018-04-19T16:44:05.146Z,102159.05
2018-04-19T16:46:33.509Z,102165.92
2018-04-19T16:49:04.597Z,102160.20
2018-04-19T16:51:34.244Z,102155.85
2018-04-19T16:54:04.160Z,102161.59
2018-04-19T16:56:33.454Z,102154.33
2018-04-19T16:59:01.843Z,102152.01
2018-04-19T17:01:30.993Z,102153.61
2018-04-19T17:03:59.805Z,102153.53
2018-04-19T17:06:29.177Z,102151.53
2018-04-19T17:08:58.627Z,102158.03
2018-04-19T17:11:27.745Z,102150.38
2018-04-19T17:13:56.937Z,102157.09
2018-04-19T17:16:25.622Z,102159.52
2018-04-19T17:18:54.806Z,102161.52
2018-04-19T17:21:23.978Z,102155.98
2018-04-19T17:23:52.392Z,102157.94
2018-04-19T17:26:20.965Z,102158.72
2018-04-19T17:28:50.176Z,102158.31
2018-04-19T17:31:19.338Z,102160.84
2018-04-19T17:33:49.088Z,102160.84
2018-04-19T17:36:18.355Z,102159.48
2018-04-19T17:38:48.533Z,102161.06
2018-04-19T17:41:17.896Z,102158.80
2018-04-19T17:43:47.225Z,102154.41
2018-04-19T17:46:15.755Z,102157.72
2018-04-19T17:48:44.488Z,102160.41
2018-04-19T17:51:13.351Z,102160.68
2018-04-19T17:53:42.851Z,102162.51
2018-04-19T17:56:11.298Z,102162.87
2018-04-19T17:58:39.685Z,102154.65
2018-04-19T18:01:08.108Z,102158.44
2018-04-19T18:03:37.323Z,102152.58
2018-04-19T18:06:06.556Z,102157.58
2018-04-19T18:08:34.966Z,102157.67
2018-04-19T18:11:03.433Z,102157.02
2018-04-19T18:13:31.932Z,102156.33
2018-04-19T18:16:01.869Z,102150.92
2018-04-19T18:18:31.031Z,102152.84
2018-04-19T18:21:00.084Z,102152.09
2018-04-19T18:23:28.460Z,102155.39
2018-04-19T18:25:57.072Z,102159.89
2018-04-19T18:28:25.501Z,102158.02
2018-04-19T18:30:54.634Z,102153.94
2018-04-19T18:33:23.096Z,102157.31
2018-04-19T18:35:51.492Z,102158.45
2018-04-19T18:38:20.575Z,102159.45
2018-04-19T18:40:48.929Z,102162.16
2018-04-19T18:43:18.595Z,102156.28
2018-04-19T18:45:47.677Z,102163.61
2018-04-19T18:48:16.121Z,102161.53
2018-04-19T18:50:44.493Z,102159.58
2018-04-19T18:53:13.625Z,102162.40
2018-04-19T18:55:42.050Z,102169.87
2018-04-19T18:58:10.977Z,102162.88
2018-04-19T19:00:39.483Z,102158.94
2018-04-19T19:03:08.433Z,102161.80
2018-04-19T19:05:37.666Z,102158.78
2018-04-19T19:08:06.095Z,102166.32
2018-04-19T19:10:34.590Z,102161.28
2018-04-19T19:13:03.933Z,102159.23
2018-04-19T19:19:18.100Z,102159.84
2018-04-19T19:21:46.583Z,102155.48
2018-04-19T19:24:15.703Z,102159.61
2018-04-19T19:26:45.437Z,102157.02
2018-04-19T19:29:14.712Z,102161.55
2018-04-19T19:31:43.789Z,102158.55
2018-04-19T19:34:12.217Z,102159.92
2018-04-19T19:36:41.377Z,102155.26
2018-04-19T19:39:11.318Z,102158.80
2018-04-19T19:41:39.714Z,102160.57
2018-04-19T19:44:09.843Z,102153.67
2018-04-19T19:46:38.971Z,102159.89
2018-04-19T19:49:08.726Z,102159.13
2018-04-19T19:51:40.484Z,102158.27
2018-04-19T19:54:09.125Z,102159.33
2018-04-19T19:56:42.691Z,102159.84
2018-04-19T19:59:12.037Z,102159.52
2018-04-19T20:01:40.410Z,102158.73
2018-04-19T20:04:09.780Z,102160.57
2018-04-19T20:06:39.319Z,102154.57
2018-04-19T20:09:08.048Z,102152.94
2018-04-19T20:11:37.652Z,102152.73
2018-04-19T20:14:06.355Z,102151.76
2018-04-19T20:16:35.759Z,102146.95
2018-04-19T20:19:05.035Z,102148.02
2018-04-19T20:21:33.515Z,102148.13
2018-04-19T20:24:01.937Z,102146.91
2018-04-19T20:26:31.113Z,102146.10
2018-04-19T20:28:59.571Z,102145.75
2018-04-19T20:31:27.961Z,102151.42
2018-04-19T20:33:56.323Z,102151.53
2018-04-19T20:36:24.693Z,102152.73
2018-04-19T20:38:53.848Z,102152.02
2018-04-19T20:41:23.148Z,102147.67
2018-04-19T20:43:52.369Z,102146.22
2018-04-19T20:46:21.644Z,102144.20
2018-04-19T20:48:51.055Z,102139.98
2018-04-19T20:51:19.473Z,102141.30
2018-04-19T20:53:47.979Z,102139.55
2018-04-19T20:56:16.327Z,102140.47
2018-04-19T20:58:44.793Z,102136.58
2018-04-19T21:01:13.981Z,102140.20
2018-04-19T21:03:43.253Z,102141.25
2018-04-19T21:06:12.446Z,102142.22
2018-04-19T21:08:42.338Z,102143.06
2018-04-19T21:11:11.561Z,102134.53
2018-04-19T21:13:41.303Z,102138.45
2018-04-19T21:16:09.693Z,102136.42
2018-04-19T21:18:38.102Z,102139.60
2018-04-19T21:21:06.518Z,102134.03
2018-04-19T21:23:34.948Z,102133.69
2018-04-19T21:26:03.525Z,102129.02
2018-04-19T21:28:32.096Z,102124.82
2018-04-19T21:31:00.623Z,102122.59
2018-04-19T21:33:29.042Z,102120.98
2018-04-19T21:35:57.491Z,102113.09
2018-04-19T21:38:26.641Z,102118.28
2018-04-19T21:40:54.977Z,102116.50
2018-04-19T21:43:24.132Z,102112.34
2018-04-19T21:45:52.903Z,102110.34
2018-04-19T21:48:21.267Z,102105.16
2018-04-19T21:50:49.656Z,102104.78
2018-04-19T21:53:18.096Z,102105.71
2018-04-19T21:55:46.543Z,102103.98
2018-04-19T21:58:14.996Z,102102.38
2018-04-19T22:00:43.450Z,102097.23
2018-04-19T22:03:11.920Z,102093.45
2018-04-19T22:05:41.070Z,102091.41
2018-04-19T22:08:09.595Z,102091.61
2018-04-19T22:10:37.973Z,102089.31
2018-04-19T22:13:07.092Z,102088.52
2018-04-19T22:15:35.452Z,102094.62
2018-04-19T22:18:04.600Z,102087.47
2018-04-19T22:20:32.960Z,102087.23
2018-04-19T22:23:01.346Z,102086.36
2018-04-19T22:25:29.715Z,102086.92
2018-04-19T22:27:58.058Z,102090.39
2018-04-19T22:30:27.434Z,102082.00
2018-04-19T22:32:55.823Z,102080.39
2018-04-19T22:35:25.098Z,102079.59
2018-04-19T22:37:53.600Z,102080.48
2018-04-19T22:40:22.030Z,102081.34
2018-04-19T22:42:50.406Z,102076.19
2018-04-19T22:45:18.830Z,102080.18
2018-04-19T22:47:47.256Z,102082.48
2018-04-19T22:50:16.627Z,102075.63
2018-04-19T22:52:44.985Z,102073.53
2018-04-19T22:55:13.363Z,102075.82
2018-04-19T22:57:42.314Z,102072.22
2018-04-19T23:00:10.717Z,102071.79
2018-04-19T23:02:39.103Z,102071.83
2018-04-19T23:05:07.526Z,102077.05
2018-04-19T23:07:36.738Z,102069.30
2018-04-19T23:10:05.255Z,102066.69
2018-04-19T23:12:33.663Z,102067.73
2018-04-19T23:15:02.009Z,102065.51
2018-04-19T23:17:30.446Z,102063.39
2018-04-19T23:19:59.469Z,102068.59
2018-04-19T23:22:35.814Z,102059.48
2018-04-19T23:25:04.994Z,102051.06
2018-04-19T23:27:33.376Z,102053.73
2018-04-19T23:30:01.807Z,102057.63
2018-04-19T23:32:30.164Z,102053.67
2018-04-19T23:34:58.621Z,102049.33
2018-04-19T23:37:27.790Z,102044.62
2018-04-19T23:39:56.374Z,102046.41
2018-04-19T23:42:24.747Z,102049.06
2018-04-19T23:44:53.232Z,102036.91
2018-04-19T23:47:21.637Z,102043.19
2018-04-19T23:49:50.784Z,102045.52
2018-04-19T23:52:19.184Z,102041.28
2018-04-19T23:54:47.585Z,102040.94
2018-04-19T23:57:15.991Z,102042.28
2018-04-19T23:59:45.154Z,102041.08
